Time;durP1;ratioP1;P1;durP2;ratioP2;P2;SDS_P1;SDS_P2;PMS_P1;PMS_P2;Temp;Humidity;BMP_temperature;BMP_pressure;BME280_temperature;BME280_humidity;BME280_pressure;Samples;Min_cycle;Max_cycle;Signal;HPM_P1;HPM_P2
2023/04/25 04:05:23;;;;;;;0.90;0.90;;;9.00;99.90;;;;;;5388497;23;20228;-67
2023/04/25 04:07:49;;;;;;;0.80;0.53;;;9.00;99.90;;;;;;4956314;28;20176;-67
2023/04/25 04:10:15;;;;;;;1.00;1.00;;;9.00;99.90;;;;;;4959225;29;20169;-67
2023/04/25 04:12:41;;;;;;;1.30;1.30;;;9.10;99.90;;;;;;4941984;29;20185;-67
2023/04/25 04:15:07;;;;;;;1.77;1.10;;;9.10;99.90;;;;;;4958572;28;20199;-66
2023/04/25 04:17:33;;;;;;;0.88;0.80;;;9.10;99.90;;;;;;4958898;29;20188;-66
2023/04/25 04:19:59;;;;;;;1.13;1.00;;;9.10;99.90;;;;;;4941762;29;20208;-67
2023/04/25 04:22:25;;;;;;;1.10;1.00;;;9.10;99.90;;;;;;4958856;29;20187;-67
2023/04/25 04:24:51;;;;;;;4.73;1.17;;;9.10;99.90;;;;;;4958276;28;20432;-67
2023/04/25 04:27:21;;;;;;;1.77;1.13;;;9.00;99.90;;;;;;4958731;29;20251;-67
2023/04/25 04:29:46;;;;;;;1.92;1.83;;;9.00;99.90;;;;;;4958553;29;20176;-67
2023/04/25 04:32:14;;;;;;;0.97;0.97;;;9.00;99.90;;;;;;4958507;29;20172;-67
2023/04/25 04:34:41;;;;;;;1.33;1.33;;;8.90;99.90;;;;;;4957315;28;20204;-66
2023/04/25 04:37:06;;;;;;;1.05;0.95;;;9.00;99.90;;;;;;4958525;29;20196;-66
2023/04/25 04:39:33;;;;;;;1.30;1.30;;;9.00;99.90;;;;;;4958552;29;20228;-66
2023/04/25 04:41:58;;;;;;;2.47;2.33;;;9.10;99.90;;;;;;4941028;29;20412;-67
2023/04/25 04:44:25;;;;;;;1.93;1.40;;;9.10;99.90;;;;;;4958055;28;20707;-66
2023/04/25 04:46:51;;;;;;;0.95;0.95;;;9.10;99.90;;;;;;4958340;29;20761;-67
2023/04/25 04:49:17;;;;;;;1.10;1.10;;;9.20;99.90;;;;;;4958586;29;20523;-66
2023/04/25 04:51:46;;;;;;;1.40;1.30;;;9.20;99.90;;;;;;4958458;29;20176;-68
2023/04/25 04:54:12;;;;;;;1.30;1.20;;;9.20;99.90;;;;;;4957880;28;20196;-67
2023/04/25 04:56:38;;;;;;;1.00;1.00;;;9.30;99.90;;;;;;4958105;29;20180;-66
2023/04/25 04:59:03;;;;;;;1.50;1.30;;;9.40;99.90;;;;;;4958175;29;20558;-66
2023/04/25 05:01:32;;;;;;;1.60;1.23;;;9.40;99.90;;;;;;4957819;29;20169;-68
2023/04/25 05:04:00;;;;;;;1.13;1.02;;;9.40;99.90;;;;;;4957550;28;20196;-66
2023/04/25 05:06:28;;;;;;;1.02;1.02;;;9.40;99.90;;;;;;4957740;29;20555;-67
2023/04/25 05:08:54;;;;;;;0.85;0.85;;;9.50;99.90;;;;;;4957816;29;20523;-66
2023/04/25 05:11:20;;;;;;;0.80;0.80;;;9.50;99.90;;;;;;4940623;29;20176;-65
2023/04/25 05:13:46;;;;;;;1.73;1.60;;;9.60;99.90;;;;;;4957463;28;20475;-68
2023/04/25 05:16:13;;;;;;;2.03;1.20;;;9.60;99.90;;;;;;4957669;29;20177;-67
2023/04/25 05:18:39;;;;;;;1.38;1.27;;;9.60;99.90;;;;;;4940478;29;20529;-67
2023/04/25 05:21:05;;;;;;;0.90;0.90;;;9.70;99.90;;;;;;4957220;29;20252;-68
2023/04/25 05:23:32;;;;;;;1.43;1.33;;;9.60;99.90;;;;;;4956760;29;20265;-67
2023/04/25 05:25:58;;;;;;;2.55;1.52;;;9.60;99.90;;;;;;4957415;29;20216;-67
2023/04/25 05:28:24;;;;;;;1.63;1.52;;;9.60;99.90;;;;;;4957675;29;20254;-67
2023/04/25 05:30:50;;;;;;;1.37;1.00;;;9.70;99.90;;;;;;4957701;29;20304;-69
2023/04/25 05:33:16;;;;;;;1.13;1.00;;;9.70;99.90;;;;;;4957089;29;20639;-67
2023/04/25 05:35:42;;;;;;;1.02;1.02;;;9.80;99.90;;;;;;4957055;29;20259;-70
2023/04/25 05:38:07;;;;;;;1.00;1.00;;;10.00;99.90;;;;;;4939742;29;20264;-67
2023/04/25 05:40:33;;;;;;;1.73;1.60;;;10.20;99.90;;;;;;4957455;29;20452;-68
2023/04/25 05:42:59;;;;;;;1.57;1.47;;;10.30;99.90;;;;;;4957383;29;20178;-68
2023/04/25 05:45:24;;;;;;;1.33;1.10;;;10.40;99.90;;;;;;4957010;29;20659;-68
2023/04/25 05:47:50;;;;;;;1.43;1.33;;;10.40;99.90;;;;;;4957505;29;20200;-67
2023/04/25 05:50:16;;;;;;;1.27;1.17;;;10.50;99.90;;;;;;4956876;29;20260;-69
2023/04/25 05:52:41;;;;;;;5.77;2.07;;;10.50;99.90;;;;;;4957165;29;20178;-69
2023/04/25 05:55:07;;;;;;;0.90;0.90;;;10.40;99.90;;;;;;4956567;29;20193;-69
2023/04/25 05:57:33;;;;;;;1.40;1.30;;;10.40;99.90;;;;;;4957159;29;20244;-68
2023/04/25 05:59:58;;;;;;;1.30;1.30;;;10.30;99.90;;;;;;4957119;29;20460;-68
2023/04/25 06:02:24;;;;;;;1.60;1.50;;;10.20;99.90;;;;;;4956984;29;20178;-68
2023/04/25 06:04:50;;;;;;;1.10;1.00;;;10.00;99.90;;;;;;4955957;29;20228;-68
2023/04/25 06:07:16;;;;;;;1.83;1.73;;;10.00;99.90;;;;;;4956663;29;20235;-66
2023/04/25 06:09:43;;;;;;;1.67;1.57;;;9.90;99.90;;;;;;4956510;29;20188;-66
2023/04/25 06:12:08;;;;;;;1.40;1.30;;;9.90;99.90;;;;;;4956814;29;20478;-66
2023/04/25 06:14:34;;;;;;;1.17;1.10;;;9.90;99.90;;;;;;4956251;29;20674;-68
2023/04/25 06:17:06;;;;;;;2.30;1.33;;;9.80;99.90;;;;;;4956518;29;20165;-66
2023/04/25 06:19:35;;;;;;;1.40;1.30;;;9.80;99.90;;;;;;4956142;29;20500;-67
2023/04/25 06:22:01;;;;;;;1.80;1.70;;;9.90;99.90;;;;;;4956208;29;20183;-66
2023/04/25 06:24:27;;;;;;;1.33;1.30;;;9.90;99.90;;;;;;4956198;29;20193;-67
2023/04/25 06:26:53;;;;;;;3.93;2.60;;;10.00;99.90;;;;;;4956581;29;20184;-67
2023/04/25 06:29:19;;;;;;;2.17;1.40;;;10.00;99.90;;;;;;4956477;29;21005;-67
2023/04/25 06:31:45;;;;;;;2.97;2.78;;;10.10;99.90;;;;;;4955285;28;20468;-66
2023/04/25 06:34:10;;;;;;;1.50;1.37;;;10.30;99.90;;;;;;4956185;29;20203;-66
2023/04/25 06:36:36;;;;;;;3.73;1.93;;;10.50;99.90;;;;;;4956093;29;20237;-66
2023/04/25 06:39:02;;;;;;;1.50;1.40;;;10.60;99.90;;;;;;4956156;29;20209;-68
2023/04/25 06:41:27;;;;;;;1.50;1.40;;;10.90;99.90;;;;;;4956448;29;20185;-68
2023/04/25 06:43:53;;;;;;;1.60;1.50;;;11.30;99.90;;;;;;4955665;29;20436;-67
2023/04/25 06:46:19;;;;;;;1.53;1.47;;;11.60;99.90;;;;;;4955984;29;20546;-68
2023/04/25 06:48:45;;;;;;;1.60;1.50;;;12.00;99.90;;;;;;4939176;29;20267;-68
2023/04/25 06:51:10;;;;;;;1.83;1.73;;;12.30;99.90;;;;;;4956538;29;20910;-68
2023/04/25 06:53:36;;;;;;;1.43;1.33;;;12.60;99.90;;;;;;4955849;29;20223;-67
2023/04/25 06:56:02;;;;;;;1.50;1.40;;;12.70;99.90;;;;;;4955916;29;20192;-68
2023/04/25 06:58:28;;;;;;;1.33;1.30;;;12.90;99.90;;;;;;4955540;29;20176;-68
2023/04/25 07:00:54;;;;;;;1.40;1.30;;;13.00;99.90;;;;;;4956156;29;20405;-68
2023/04/25 07:03:20;;;;;;;2.30;1.70;;;13.10;99.90;;;;;;4955446;29;20173;-68
2023/04/25 07:05:46;;;;;;;1.87;1.77;;;13.20;99.90;;;;;;4938530;29;20682;-67
2023/04/25 07:08:11;;;;;;;1.77;1.67;;;13.30;99.90;;;;;;4956042;29;20411;-68
2023/04/25 07:10:37;;;;;;;1.37;1.37;;;13.30;99.90;;;;;;4955784;29;20420;-68
2023/04/25 07:13:03;;;;;;;1.90;1.43;;;13.30;99.90;;;;;;4955187;29;20193;-68
2023/04/25 07:15:28;;;;;;;1.70;1.60;;;13.20;99.90;;;;;;4955628;29;20193;-68
2023/04/25 07:17:54;;;;;;;1.93;1.73;;;13.10;99.90;;;;;;4956038;29;20184;-68
2023/04/25 07:20:20;;;;;;;2.57;2.37;;;13.10;99.90;;;;;;4955501;29;20283;-67
2023/04/25 07:22:45;;;;;;;1.70;1.67;;;12.90;99.90;;;;;;4955494;29;20572;-67
2023/04/25 07:25:11;;;;;;;1.77;1.67;;;12.80;99.90;;;;;;4954990;29;20251;-65
2023/04/25 07:27:37;;;;;;;1.73;1.53;;;12.60;99.90;;;;;;4955197;29;20180;-67
2023/04/25 07:30:03;;;;;;;1.10;1.10;;;12.50;99.90;;;;;;4955806;29;20235;-67
2023/04/25 07:32:30;;;;;;;1.40;1.40;;;12.30;99.90;;;;;;4955900;29;20706;-67
2023/04/25 07:34:55;;;;;;;1.47;1.40;;;12.00;99.90;;;;;;4937458;29;21000;-68
2023/04/25 07:37:21;;;;;;;1.87;1.77;;;11.90;99.90;;;;;;4955507;29;20409;-67
2023/04/25 07:39:46;;;;;;;1.20;1.17;;;11.60;99.90;;;;;;4938170;29;20254;-67
2023/04/25 07:42:13;;;;;;;1.70;1.60;;;11.60;99.90;;;;;;4955361;28;20258;-67
2023/04/25 07:44:39;;;;;;;1.57;1.47;;;11.50;99.90;;;;;;4954922;29;20215;-67
2023/04/25 07:47:09;;;;;;;1.30;1.20;;;11.50;99.90;;;;;;4955246;29;20419;-68
2023/04/25 07:49:35;;;;;;;1.70;1.60;;;11.50;99.90;;;;;;4954934;29;20489;-68
2023/04/25 07:52:02;;;;;;;2.17;2.07;;;11.40;99.90;;;;;;4955313;29;20413;-68
2023/04/25 07:54:28;;;;;;;2.20;1.70;;;11.40;99.90;;;;;;4954794;29;20430;-68
2023/04/25 07:56:54;;;;;;;1.60;1.50;;;11.40;99.90;;;;;;4955105;29;20442;-68
2023/04/25 07:59:20;;;;;;;1.80;1.70;;;11.30;99.90;;;;;;4937796;29;20444;-68
2023/04/25 08:01:45;;;;;;;1.97;1.87;;;11.20;99.90;;;;;;4955072;29;20173;-68
2023/04/25 08:04:11;;;;;;;1.93;1.70;;;11.10;99.90;;;;;;4954472;29;20515;-67
2023/04/25 08:06:37;;;;;;;2.00;1.73;;;11.10;99.90;;;;;;4954930;29;20524;-67
2023/04/25 08:09:02;;;;;;;2.13;2.00;;;10.90;99.90;;;;;;4955149;29;20173;-69
2023/04/25 08:11:28;;;;;;;1.47;1.37;;;10.80;99.90;;;;;;4954873;29;20261;-68
2023/04/25 08:13:54;;;;;;;4.23;2.30;;;10.70;99.90;;;;;;4954473;29;20412;-68
2023/04/25 08:16:20;;;;;;;2.17;1.97;;;10.60;99.90;;;;;;4954878;29;20169;-67
2023/04/25 08:18:45;;;;;;;2.00;1.90;;;10.40;99.90;;;;;;4954792;29;20651;-67
2023/04/25 08:21:11;;;;;;;2.00;1.90;;;10.20;99.90;;;;;;4955190;29;20535;-68
2023/04/25 08:23:37;;;;;;;1.75;1.65;;;10.00;99.90;;;;;;4954663;29;20219;-68
2023/04/25 08:26:04;;;;;;;1.65;1.55;;;9.90;99.90;;;;;;4954663;29;20209;-67
2023/04/25 08:28:30;;;;;;;2.72;2.53;;;9.80;99.90;;;;;;4954790;29;20228;-68
2023/04/25 08:30:55;;;;;;;2.40;2.30;;;9.80;99.90;;;;;;4954818;29;20193;-67
2023/04/25 08:33:21;;;;;;;3.03;2.63;;;9.80;99.90;;;;;;4954493;29;21043;-69
2023/04/25 08:35:47;;;;;;;2.70;2.50;;;9.90;99.90;;;;;;4954789;29;20211;-68
2023/04/25 08:38:12;;;;;;;2.30;2.13;;;9.90;99.90;;;;;;4954737;29;20204;-68
2023/04/25 08:40:39;;;;;;;3.63;2.83;;;9.90;99.90;;;;;;4954818;29;20205;-68
2023/04/25 08:43:11;;;;;;;1.88;1.77;;;9.90;99.90;;;;;;4954587;29;20196;-68
2023/04/25 08:45:42;;;;;;;1.95;1.85;;;10.00;99.90;;;;;;4954768;29;20601;-68
2023/04/25 08:48:12;;;;;;;2.78;2.58;;;10.00;99.90;;;;;;4954441;29;20177;-69
2023/04/25 08:50:50;;;;;;;2.15;1.95;;;10.10;99.90;;;;;;4937522;29;20184;-67
2023/04/25 08:53:19;;;;;;;2.28;2.03;;;10.20;99.90;;;;;;4937484;29;20697;-68
2023/04/25 08:55:46;;;;;;;2.70;2.50;;;10.30;99.90;;;;;;4958187;29;20223;-66
2023/04/25 08:58:12;;;;;;;2.95;2.47;;;10.30;99.90;;;;;;4958214;29;20187;-68
2023/04/25 09:00:38;;;;;;;2.13;2.00;;;10.40;99.90;;;;;;4957991;29;20627;-67
2023/04/25 09:03:05;;;;;;;2.23;1.80;;;10.30;99.90;;;;;;4957716;29;20508;-67
2023/04/25 09:05:35;;;;;;;2.00;1.90;;;10.20;99.90;;;;;;4957839;29;20850;-67
2023/04/25 09:08:01;;;;;;;2.72;2.53;;;10.00;99.90;;;;;;4941438;29;20659;-68
2023/04/25 09:10:27;;;;;;;2.38;2.17;;;9.70;99.90;;;;;;4958014;29;20180;-72
2023/04/25 09:13:03;;;;;;;4.00;2.90;;;9.40;99.90;;;;;;4958358;29;20183;-71
2023/04/25 09:15:29;;;;;;;1.85;1.75;;;9.10;99.90;;;;;;4958216;29;20466;-71
2023/04/25 09:17:56;;;;;;;2.38;2.05;;;8.80;99.90;;;;;;4940432;29;20217;-71
2023/04/25 09:20:22;;;;;;;2.55;1.90;;;8.60;99.90;;;;;;4940766;29;20201;-70
2023/04/25 09:22:47;;;;;;;1.77;1.67;;;8.50;99.90;;;;;;4957336;29;20263;-71
2023/04/25 09:25:16;;;;;;;2.47;2.23;;;8.40;99.90;;;;;;4956977;29;20193;-72
2023/04/25 09:27:52;;;;;;;2.72;2.53;;;8.40;99.90;;;;;;4957715;29;20169;-71
2023/04/25 09:30:18;;;;;;;2.88;2.58;;;8.30;99.90;;;;;;4940371;29;20673;-71
2023/04/25 09:32:44;;;;;;;2.17;1.90;;;8.40;99.90;;;;;;4957695;29;20180;-70
2023/04/25 09:35:11;;;;;;;2.58;2.45;;;8.40;99.90;;;;;;4957061;29;20592;-70
2023/04/25 09:37:37;;;;;;;2.55;2.35;;;8.40;99.90;;;;;;4957155;29;20293;-69
2023/04/25 09:40:05;;;;;;;2.27;2.07;;;8.40;99.90;;;;;;4957841;29;20674;-70
2023/04/25 09:42:34;;;;;;;3.05;2.67;;;8.40;99.90;;;;;;4957547;29;20662;-71
2023/04/25 09:45:03;;;;;;;2.22;2.08;;;8.40;99.90;;;;;;4956973;29;20192;-70
2023/04/25 09:47:29;;;;;;;2.78;2.33;;;8.30;99.90;;;;;;4957568;29;20176;-70
2023/04/25 09:49:55;;;;;;;2.90;2.60;;;8.30;99.90;;;;;;4957488;29;20176;-70
2023/04/25 09:52:22;;;;;;;1.90;1.80;;;8.40;99.90;;;;;;4956953;29;20258;-69
2023/04/25 09:54:49;;;;;;;2.70;2.15;;;8.40;99.90;;;;;;4956690;29;20200;-70
2023/04/25 09:57:22;;;;;;;3.38;3.08;;;8.50;99.90;;;;;;4957236;29;20195;-69
2023/04/25 09:59:50;;;;;;;3.17;2.42;;;8.50;99.90;;;;;;4956710;29;20654;-70
2023/04/25 10:02:21;;;;;;;2.25;2.05;;;8.60;99.90;;;;;;4956615;29;20207;-70
2023/04/25 10:04:54;;;;;;;2.00;1.60;;;8.60;99.90;;;;;;4955857;28;20247;-69
2023/04/25 10:07:23;;;;;;;2.28;2.17;;;8.60;99.90;;;;;;4956813;29;20522;-69
2023/04/25 10:09:51;;;;;;;2.22;1.95;;;8.60;99.90;;;;;;4956706;29;20210;-71
2023/04/25 10:12:18;;;;;;;3.35;2.67;;;8.70;99.90;;;;;;4956969;29;20252;-71
2023/04/25 10:14:44;;;;;;;3.05;2.05;;;8.70;99.90;;;;;;4956320;29;20251;-69
2023/04/25 10:17:11;;;;;;;1.63;1.23;;;8.70;99.90;;;;;;4939557;29;20177;-69
2023/04/25 10:19:37;;;;;;;1.88;1.77;;;8.70;99.90;;;;;;4956721;29;20702;-70
2023/04/25 10:22:08;;;;;;;1.30;0.83;;;8.60;99.90;;;;;;4956721;29;20196;-70
2023/04/25 10:24:36;;;;;;;1.52;1.17;;;8.60;99.90;;;;;;4955649;29;21038;-69
2023/04/25 10:27:02;;;;;;;0.80;0.80;;;8.50;99.90;;;;;;4956744;29;20173;-70
2023/04/25 10:29:28;;;;;;;1.58;1.42;;;8.40;99.90;;;;;;4956692;29;20308;-70
2023/04/25 10:31:54;;;;;;;1.40;1.30;;;8.40;99.90;;;;;;4956516;29;20197;-69
2023/04/25 10:34:24;;;;;;;0.87;0.87;;;8.40;99.90;;;;;;4956130;29;20193;-70
2023/04/25 10:36:55;;;;;;;1.35;1.33;;;8.30;99.90;;;;;;4956552;29;20177;-70
2023/04/25 10:39:26;;;;;;;1.35;1.25;;;8.30;99.90;;;;;;4955967;29;20203;-69
2023/04/25 10:41:56;;;;;;;1.60;1.50;;;8.30;99.90;;;;;;4955994;29;20182;-69
2023/04/25 10:44:22;;;;;;;2.38;2.28;;;8.20;99.90;;;;;;4955657;29;20595;-69
2023/04/25 10:46:48;;;;;;;2.15;1.77;;;8.20;99.90;;;;;;4956276;29;20180;-69
2023/04/25 10:49:40;;;;;;;1.20;1.20;;;8.20;99.90;;;;;;4955996;29;20187;-69
2023/04/25 10:52:29;;;;;;;1.20;1.10;;;8.20;99.90;;;;;;4950103;29;20219;-69
2023/04/25 10:54:56;;;;;;;1.88;1.77;;;8.10;99.90;;;;;;4955793;29;20275;-68
2023/04/25 10:57:29;;;;;;;1.85;1.75;;;8.10;99.90;;;;;;4956039;29;20670;-69
2023/04/25 10:59:59;;;;;;;1.65;1.55;;;8.10;99.90;;;;;;4955969;29;20343;-69
2023/04/25 11:02:28;;;;;;;1.10;1.10;;;8.00;99.90;;;;;;4955661;29;20531;-69
2023/04/25 11:04:54;;;;;;;1.25;1.15;;;8.00;99.90;;;;;;4955275;28;20287;-68
2023/04/25 11:07:28;;;;;;;1.47;1.37;;;8.00;99.90;;;;;;4956100;29;20301;-68
2023/04/25 11:09:53;;;;;;;1.60;1.60;;;7.90;99.90;;;;;;4956225;29;20175;-67
2023/04/25 11:12:19;;;;;;;3.43;2.03;;;7.90;99.90;;;;;;4955412;29;20551;-67
2023/04/25 11:14:45;;;;;;;2.53;2.43;;;8.00;99.90;;;;;;4955279;29;20197;-68
2023/04/25 11:17:11;;;;;;;1.67;1.58;;;8.00;99.90;;;;;;4955405;28;20176;-68
2023/04/25 11:19:36;;;;;;;1.93;1.83;;;8.00;99.90;;;;;;4938193;29;20208;-68
2023/04/25 11:22:03;;;;;;;2.83;1.97;;;8.00;99.90;;;;;;4955609;29;20259;-68
2023/04/25 11:24:31;;;;;;;1.55;1.45;;;8.10;99.90;;;;;;4955105;29;20224;-67
2023/04/25 11:27:04;;;;;;;2.95;1.73;;;8.10;99.90;;;;;;4955037;29;20545;-67
2023/04/25 11:29:31;;;;;;;2.17;1.75;;;8.20;99.90;;;;;;4955541;29;20594;-67
2023/04/25 11:32:00;;;;;;;0.98;0.98;;;8.30;99.90;;;;;;4955163;29;20241;-67
2023/04/25 11:34:30;;;;;;;2.15;1.55;;;8.40;99.90;;;;;;4955046;29;20279;-68
2023/04/25 11:36:56;;;;;;;1.83;1.70;;;8.50;99.90;;;;;;4955311;29;20173;-68
2023/04/25 11:39:25;;;;;;;1.90;1.70;;;8.60;99.90;;;;;;4955533;29;20248;-68
2023/04/25 11:41:51;;;;;;;1.60;1.50;;;8.80;99.90;;;;;;4955474;29;20436;-69
2023/04/25 11:44:18;;;;;;;3.95;1.65;;;8.90;99.90;;;;;;4954851;29;20193;-68
2023/04/25 11:46:44;;;;;;;8.27;2.35;;;9.10;99.90;;;;;;4938052;29;20188;-69
2023/04/25 11:49:11;;;;;;;1.30;1.30;;;9.20;99.90;;;;;;4955099;29;20687;-68
2023/04/25 11:51:44;;;;;;;1.55;1.45;;;9.30;99.90;;;;;;4955158;29;20182;-68
2023/04/25 11:54:11;;;;;;;0.98;0.98;;;9.40;99.90;;;;;;4954724;29;20649;-69
2023/04/25 11:56:37;;;;;;;1.45;1.35;;;9.60;99.90;;;;;;4955314;29;20710;-68
2023/04/25 11:59:05;;;;;;;2.80;2.20;;;9.70;99.90;;;;;;4955096;29;20289;-69
2023/04/25 12:01:36;;;;;;;1.53;1.43;;;9.80;99.90;;;;;;4937849;29;20420;-69
2023/04/25 12:04:16;;;;;;;1.23;0.95;;;9.90;99.90;;;;;;4954918;29;20444;-66
2023/04/25 12:06:47;;;;;;;2.10;1.70;;;10.00;99.90;;;;;;4954964;29;20196;-68
2023/04/25 12:09:13;;;;;;;0.95;0.95;;;10.10;99.90;;;;;;4955168;29;20189;-68
2023/04/25 12:11:47;;;;;;;1.70;1.63;;;10.30;99.90;;;;;;4955077;29;20607;-69
2023/04/25 12:14:24;;;;;;;2.30;1.53;;;10.40;99.90;;;;;;4954106;29;20202;-68
2023/04/25 12:16:51;;;;;;;1.70;1.60;;;10.40;99.90;;;;;;4954720;29;20927;-68
2023/04/25 12:19:18;;;;;;;2.00;1.90;;;10.30;99.90;;;;;;4955028;29;20476;-68
2023/04/25 12:21:44;;;;;;;1.57;1.47;;;10.30;99.90;;;;;;4954383;29;20418;-68
2023/04/25 12:24:14;;;;;;;2.20;2.00;;;10.20;99.90;;;;;;4936592;29;20443;-68
2023/04/25 12:27:07;;;;;;;1.30;1.23;;;10.30;99.90;;;;;;4937585;29;20485;-68
2023/04/25 12:29:34;;;;;;;1.87;1.77;;;10.30;99.90;;;;;;4954881;28;20415;-67
2023/04/25 12:32:01;;;;;;;1.43;1.20;;;10.30;99.90;;;;;;4958776;29;20410;-68
2023/04/25 12:34:27;;;;;;;1.57;1.47;;;10.50;99.90;;;;;;4940782;29;20469;-68
2023/04/25 12:36:53;;;;;;;2.47;2.27;;;10.50;99.90;;;;;;4941257;29;20419;-70
2023/04/25 12:39:24;;;;;;;2.27;2.17;;;10.60;99.90;;;;;;4958093;29;20474;-68
2023/04/25 12:41:55;;;;;;;1.00;1.00;;;10.60;99.90;;;;;;4958500;29;20410;-68
2023/04/25 12:44:21;;;;;;;1.60;1.50;;;10.70;99.90;;;;;;4957753;29;20439;-68
2023/04/25 12:46:47;;;;;;;2.30;2.10;;;10.70;99.90;;;;;;4958355;29;20747;-68
2023/04/25 12:49:13;;;;;;;2.17;2.07;;;10.80;99.90;;;;;;4958156;29;20175;-68
2023/04/25 12:51:39;;;;;;;2.50;2.37;;;10.80;99.90;;;;;;4958179;29;20486;-68
2023/04/25 12:54:06;;;;;;;2.13;1.70;;;10.80;99.90;;;;;;4957500;29;20451;-69
2023/04/25 12:56:32;;;;;;;2.60;2.40;;;10.80;99.90;;;;;;4941034;29;20761;-67
2023/04/25 12:58:58;;;;;;;1.93;1.83;;;10.70;99.90;;;;;;4957997;29;20567;-66
2023/04/25 13:01:26;;;;;;;1.80;1.70;;;10.80;99.90;;;;;;4939460;29;20942;-68
2023/04/25 13:03:52;;;;;;;1.67;1.40;;;10.90;99.90;;;;;;4938452;29;20918;-67
2023/04/25 13:06:19;;;;;;;1.53;1.53;;;11.10;99.90;;;;;;4955977;28;20479;-68
2023/04/25 13:08:45;;;;;;;1.77;1.67;;;11.40;99.90;;;;;;4938603;29;20963;-68
2023/04/25 13:11:11;;;;;;;2.13;1.93;;;11.80;99.90;;;;;;4955992;29;20409;-67
2023/04/25 13:13:37;;;;;;;2.00;1.87;;;12.00;99.90;;;;;;4955684;29;20190;-67
2023/04/25 13:16:03;;;;;;;1.70;1.60;;;12.20;99.90;;;;;;4939148;29;20798;-67
2023/04/25 13:18:30;;;;;;;2.07;1.70;;;12.30;99.90;;;;;;4957545;29;20799;-67
2023/04/25 13:20:57;;;;;;;7.40;4.67;;;12.40;99.90;;;;;;4957645;29;20583;-69
2023/04/25 13:23:22;;;;;;;1.60;1.50;;;12.40;99.90;;;;;;4957809;29;20414;-67
2023/04/25 13:25:48;;;;;;;2.27;2.07;;;12.40;99.90;;;;;;4957825;29;20510;-67
2023/04/25 13:28:14;;;;;;;2.30;2.20;;;12.40;99.90;;;;;;4957279;29;20546;-67
2023/04/25 13:30:40;;;;;;;3.13;2.50;;;12.40;99.90;;;;;;4957767;29;20405;-67
2023/04/25 13:33:06;;;;;;;1.97;1.87;;;12.50;99.90;;;;;;4957072;29;20983;-67
2023/04/25 13:35:33;;;;;;;3.23;2.40;;;12.60;99.90;;;;;;4957411;29;20196;-66
2023/04/25 13:37:59;;;;;;;2.40;2.20;;;12.60;99.90;;;;;;4957550;29;20263;-66
2023/04/25 13:40:24;;;;;;;2.10;1.90;;;12.70;99.90;;;;;;4957295;28;20539;-66
2023/04/25 13:42:50;;;;;;;6.20;2.93;;;12.90;99.90;;;;;;4957149;29;20862;-66
2023/04/25 13:45:16;;;;;;;3.00;2.10;;;13.00;99.90;;;;;;4939712;29;20192;-67
2023/04/25 13:47:42;;;;;;;4.73;3.33;;;13.10;99.90;;;;;;4957453;29;20412;-66
2023/04/25 13:50:08;;;;;;;2.90;2.10;;;13.10;99.90;;;;;;4957284;29;20173;-66
2023/04/25 13:52:34;;;;;;;7.77;2.93;;;13.10;99.90;;;;;;4957320;29;20309;-66
2023/04/25 13:55:00;;;;;;;2.40;2.30;;;13.20;99.90;;;;;;4956260;29;20531;-67
2023/04/25 13:57:26;;;;;;;2.70;2.50;;;13.30;99.90;;;;;;4957330;29;20165;-68
2023/04/25 13:59:52;;;;;;;2.13;1.93;;;13.40;99.90;;;;;;4956878;29;20842;-66
2023/04/25 14:02:18;;;;;;;5.13;2.77;;;13.40;99.90;;;;;;4939680;29;20658;-66
2023/04/25 14:04:43;;;;;;;3.60;3.13;;;13.40;99.90;;;;;;4956555;28;20424;-66
2023/04/25 14:07:10;;;;;;;3.20;2.63;;;13.40;99.90;;;;;;4957196;29;20171;-67
2023/04/25 14:09:36;;;;;;;3.73;3.00;;;13.30;99.90;;;;;;4956765;29;20181;-66
2023/04/25 14:12:02;;;;;;;2.20;2.10;;;13.30;99.90;;;;;;4957155;29;20906;-67
2023/04/25 14:14:28;;;;;;;2.87;2.67;;;13.50;99.90;;;;;;4956161;29;20707;-66
2023/04/25 14:16:54;;;;;;;3.70;3.40;;;13.90;99.90;;;;;;4939482;29;20414;-67
2023/04/25 14:19:20;;;;;;;3.43;3.13;;;14.00;99.90;;;;;;4956816;29;20253;-67
2023/04/25 14:21:46;;;;;;;3.40;2.93;;;14.10;99.90;;;;;;4956769;29;21040;-67
2023/04/25 14:24:13;;;;;;;4.37;3.03;;;14.10;99.90;;;;;;4956206;29;20519;-67
2023/04/25 14:26:39;;;;;;;3.03;2.83;;;13.90;99.90;;;;;;4956487;29;20768;-66
2023/04/25 14:29:06;;;;;;;4.80;3.20;;;13.70;99.90;;;;;;4956317;29;20424;-66
2023/04/25 14:31:32;;;;;;;4.27;3.97;;;13.60;99.90;;;;;;4956406;29;20416;-68
2023/04/25 14:33:58;;;;;;;2.93;2.30;;;13.50;99.90;;;;;;4955712;29;20799;-68
2023/04/25 14:36:23;;;;;;;3.90;2.90;;;13.50;99.90;;;;;;4956406;29;20984;-69
2023/04/25 14:38:49;;;;;;;2.70;2.50;;;13.50;99.90;;;;;;4956642;29;20213;-68
2023/04/25 14:41:15;;;;;;;3.27;2.97;;;13.50;99.90;;;;;;4956229;29;20579;-68
2023/04/25 14:43:41;;;;;;;3.37;3.07;;;13.50;99.90;;;;;;4955957;29;20169;-68
2023/04/25 14:46:07;;;;;;;5.03;4.53;;;13.30;99.90;;;;;;4956267;29;20412;-68
2023/04/25 14:48:33;;;;;;;3.13;2.93;;;13.30;99.90;;;;;;4956556;29;20173;-68
2023/04/25 14:51:00;;;;;;;4.03;3.20;;;13.20;99.90;;;;;;4955678;28;20409;-68
2023/04/25 14:53:26;;;;;;;3.33;3.03;;;13.10;99.90;;;;;;4938280;29;20436;-67
2023/04/25 14:55:52;;;;;;;2.60;2.40;;;13.10;99.90;;;;;;4939048;29;20560;-68
2023/04/25 14:58:18;;;;;;;2.90;2.60;;;13.20;99.90;;;;;;4955970;29;20868;-67
2023/04/25 15:00:44;;;;;;;3.60;3.30;;;13.30;99.90;;;;;;4956124;29;20638;-67
2023/04/25 15:03:12;;;;;;;3.70;2.87;;;13.30;99.90;;;;;;4955946;29;20176;-69
2023/04/25 15:05:37;;;;;;;2.17;2.03;;;13.40;99.90;;;;;;4955749;29;20906;-68
2023/04/25 15:08:03;;;;;;;2.43;2.23;;;13.40;99.90;;;;;;4956825;29;20452;-68
2023/04/25 15:10:29;;;;;;;3.00;2.80;;;13.50;99.90;;;;;;4961290;29;20228;-68
2023/04/25 15:12:55;;;;;;;3.53;2.57;;;13.60;99.90;;;;;;4963222;29;20173;-68
2023/04/25 15:15:22;;;;;;;2.47;2.27;;;13.60;99.90;;;;;;4963021;29;20670;-69
2023/04/25 15:17:47;;;;;;;3.90;3.60;;;13.60;99.90;;;;;;4962015;29;20412;-69
2023/04/25 15:20:13;;;;;;;2.70;2.50;;;13.50;99.90;;;;;;4959374;29;20444;-68
2023/04/25 15:22:41;;;;;;;1.87;1.77;;;13.40;99.90;;;;;;4956062;29;20172;-68
2023/04/25 15:25:08;;;;;;;2.43;2.27;;;13.20;99.90;;;;;;4955258;29;20522;-67
2023/04/25 15:27:37;;;;;;;3.60;2.70;;;13.10;99.90;;;;;;4955611;29;20408;-69
2023/04/25 15:30:05;;;;;;;4.50;1.97;;;13.00;99.90;;;;;;4955239;29;20840;-69
2023/04/25 15:32:31;;;;;;;2.50;2.20;;;13.00;99.90;;;;;;4938488;29;20432;-70
2023/04/25 15:34:56;;;;;;;2.23;2.03;;;13.00;99.90;;;;;;4937936;29;20454;-69
2023/04/25 15:37:22;;;;;;;2.43;1.63;;;12.80;99.90;;;;;;4955641;29;20180;-69
2023/04/25 15:39:48;;;;;;;3.60;1.97;;;12.70;99.90;;;;;;4938411;29;20666;-68
2023/04/25 15:42:13;;;;;;;2.40;2.27;;;12.70;99.90;;;;;;4955472;29;20181;-68
2023/04/25 15:44:39;;;;;;;1.73;1.60;;;12.70;99.90;;;;;;4954740;29;20204;-67
2023/04/25 15:47:04;;;;;;;2.27;2.10;;;12.70;99.90;;;;;;4955405;29;20173;-69
2023/04/25 15:49:30;;;;;;;2.00;1.90;;;12.60;99.90;;;;;;4955107;29;20169;-69
2023/04/25 15:51:56;;;;;;;1.60;1.50;;;12.50;99.90;;;;;;4955329;29;20177;-68
2023/04/25 15:54:21;;;;;;;3.33;2.77;;;12.50;99.90;;;;;;4954836;29;20886;-69
2023/04/25 15:56:47;;;;;;;3.17;2.33;;;12.60;99.90;;;;;;4937971;29;20173;-68
2023/04/25 15:59:13;;;;;;;3.17;2.97;;;12.50;99.90;;;;;;4954640;29;20206;-67
2023/04/25 16:01:39;;;;;;;2.30;2.03;;;12.60;99.90;;;;;;4955277;29;20172;-69
2023/04/25 16:04:05;;;;;;;2.33;2.00;;;12.70;99.90;;;;;;4956338;28;20214;-68
2023/04/25 16:06:30;;;;;;;2.07;1.97;;;12.80;99.90;;;;;;4958849;29;20424;-68
2023/04/25 16:08:59;;;;;;;6.07;2.50;;;12.70;99.90;;;;;;4958660;29;20169;-68
2023/04/25 16:11:25;;;;;;;2.07;1.97;;;12.60;99.90;;;;;;4958958;29;20918;-67
2023/04/25 16:13:50;;;;;;;2.40;2.20;;;12.50;99.90;;;;;;4958734;29;20419;-67
2023/04/25 16:16:16;;;;;;;3.30;2.60;;;12.50;99.90;;;;;;4959169;29;20223;-70
2023/04/25 16:18:42;;;;;;;2.00;1.90;;;12.50;99.90;;;;;;4958441;29;20283;-68
2023/04/25 16:21:07;;;;;;;2.83;2.60;;;12.40;99.90;;;;;;4958252;29;20204;-69
2023/04/25 16:23:33;;;;;;;1.60;1.50;;;12.30;99.90;;;;;;4958390;29;20180;-69
2023/04/25 16:25:58;;;;;;;2.60;2.17;;;12.30;99.90;;;;;;4958697;29;20251;-68
2023/04/25 16:28:24;;;;;;;4.13;3.47;;;12.20;99.90;;;;;;4941139;29;20660;-65
2023/04/25 16:30:50;;;;;;;2.87;2.63;;;12.10;99.90;;;;;;4941789;29;20167;-68
2023/04/25 16:33:15;;;;;;;3.50;2.90;;;12.00;99.90;;;;;;4958481;29;20259;-70
2023/04/25 16:35:41;;;;;;;3.20;2.93;;;12.00;99.90;;;;;;4954511;28;20661;-69
2023/04/25 16:38:07;;;;;;;2.80;2.60;;;12.00;99.90;;;;;;4957659;29;20181;-70
2023/04/25 16:40:32;;;;;;;3.80;2.30;;;11.90;99.90;;;;;;4958469;29;20207;-70
2023/04/25 16:42:58;;;;;;;2.70;2.50;;;11.90;99.90;;;;;;4958138;29;20661;-70
2023/04/25 16:45:25;;;;;;;3.50;3.30;;;11.90;99.90;;;;;;4940862;29;20195;-72
2023/04/25 16:47:50;;;;;;;4.10;2.60;;;11.80;99.90;;;;;;4956852;29;20175;-72
2023/04/25 16:50:17;;;;;;;3.93;3.40;;;11.80;99.90;;;;;;4947945;29;20768;-71
2023/04/25 16:52:43;;;;;;;2.30;2.17;;;11.80;99.90;;;;;;4958052;29;20183;-72